createdAt,value
2017-12-20T00:01:43.467Z,102434.67
2017-12-20T00:04:15.552Z,102435.54
2017-12-20T00:06:47.433Z,102433.36
2017-12-20T00:09:15.555Z,102430.31
2017-12-20T00:11:47.825Z,102424.61
2017-12-20T00:14:19.896Z,102425.91
2017-12-20T00:16:46.890Z,102426.80
2017-12-20T00:19:14.585Z,102421.98
2017-12-20T00:21:47.017Z,102424.65
2017-12-20T00:24:14.967Z,102417.20
2017-12-20T00:26:41.863Z,102414.58
2017-12-20T00:29:08.899Z,102409.33
2017-12-20T00:31:35.803Z,102412.84
2017-12-20T00:34:02.825Z,102402.75
2017-12-20T00:36:35.127Z,102405.84
2017-12-20T00:39:07.551Z,102399.25
2017-12-20T00:41:37.036Z,102408.90
2017-12-20T00:44:04.383Z,102405.84
2017-12-20T00:46:34.559Z,102413.28
2017-12-20T00:49:04.138Z,102415.91
2017-12-20T00:51:33.520Z,102410.19
2017-12-20T00:54:04.035Z,102411.06
2017-12-20T00:56:33.406Z,102406.27
2017-12-20T00:59:05.619Z,102401.02
2017-12-20T01:01:32.573Z,102403.64
2017-12-20T01:03:59.548Z,102403.64
2017-12-20T01:06:28.815Z,102411.94
2017-12-20T01:09:00.969Z,102412.80
2017-12-20T01:11:27.846Z,102408.46
2017-12-20T01:13:56.481Z,102415.01
2017-12-20T01:16:23.809Z,102418.94
2017-12-20T01:18:56.616Z,102416.75
2017-12-20T01:21:23.930Z,102418.91
2017-12-20T01:23:56.807Z,102425.91
2017-12-20T01:26:24.012Z,102422.86
2017-12-20T01:28:56.064Z,102427.22
2017-12-20T01:31:23.358Z,102428.55
2017-12-20T01:33:55.495Z,102430.27
2017-12-20T01:36:22.672Z,102429.41
2017-12-20T01:38:49.609Z,102429.39
2017-12-20T01:41:16.612Z,102429.41
2017-12-20T01:43:49.484Z,102433.75
2017-12-20T01:46:16.316Z,102431.14
2017-12-20T01:48:43.866Z,102440.73
2017-12-20T01:51:10.756Z,102435.94
2017-12-20T01:53:38.737Z,102432.89
2017-12-20T01:56:11.156Z,102431.57
2017-12-20T01:58:38.102Z,102421.12
2017-12-20T02:01:05.698Z,102410.61
2017-12-20T02:03:32.577Z,102401.02
2017-12-20T02:05:59.723Z,102397.51
2017-12-20T02:08:26.668Z,102386.98
2017-12-20T02:10:54.865Z,102395.33
2017-12-20T02:13:24.939Z,102389.66
2017-12-20T02:15:57.630Z,102393.16
2017-12-20T02:18:25.614Z,102391.39
2017-12-20T02:20:52.714Z,102389.63
2017-12-20T02:23:20.836Z,102388.72
2017-12-20T02:25:48.484Z,102390.07
2017-12-20T02:28:18.389Z,102385.67
2017-12-20T02:30:51.366Z,102393.10
2017-12-20T02:33:32.109Z,102394.89
2017-12-20T02:35:58.973Z,102387.00
2017-12-20T02:38:38.207Z,102382.62
2017-12-20T02:41:13.051Z,102392.67
2017-12-20T02:43:41.017Z,102397.48
2017-12-20T02:46:08.870Z,102389.59
2017-12-20T02:48:35.729Z,102393.10
2017-12-20T02:51:03.656Z,102396.14
2017-12-20T02:53:35.732Z,102393.55
2017-12-20T02:56:09.282Z,102394.41
2017-12-20T02:58:36.144Z,102386.08
2017-12-20T03:01:09.030Z,102381.72
2017-12-20T03:03:36.625Z,102382.58
2017-12-20T03:06:03.505Z,102378.63
2017-12-20T03:08:35.617Z,102377.77
2017-12-20T03:11:07.845Z,102373.43
2017-12-20T03:13:35.682Z,102377.36
2017-12-20T03:16:02.901Z,102373.83
2017-12-20T03:18:35.874Z,102370.35
2017-12-20T03:21:02.968Z,102369.03
2017-12-20T03:23:30.529Z,102369.89
2017-12-20T03:25:57.754Z,102367.30
2017-12-20T03:28:24.543Z,102368.17
2017-12-20T03:30:51.394Z,102368.63
2017-12-20T03:33:19.438Z,102368.61
2017-12-20T03:35:47.110Z,102376.89
2017-12-20T03:38:14.466Z,102377.81
2017-12-20T03:40:43.232Z,102382.60
2017-12-20T03:43:10.134Z,102381.26
2017-12-20T03:45:37.308Z,102386.95
2017-12-20T03:48:07.431Z,102389.59
2017-12-20T03:50:34.527Z,102392.22
2017-12-20T03:53:02.262Z,102397.90
2017-12-20T03:55:29.125Z,102396.58
2017-12-20T03:58:01.260Z,102397.88
2017-12-20T04:00:34.520Z,102396.12
2017-12-20T04:03:01.498Z,102395.68
2017-12-20T04:05:28.372Z,102399.64
2017-12-20T04:07:55.586Z,102395.22
2017-12-20T04:10:24.491Z,102393.91
2017-12-20T04:12:51.641Z,102387.81
2017-12-20T04:15:19.522Z,102386.95
2017-12-20T04:17:47.197Z,102388.69
2017-12-20T04:20:19.280Z,102387.34
2017-12-20T04:22:47.279Z,102392.19
2017-12-20T04:25:14.901Z,102398.73
2017-12-20T04:27:42.639Z,102396.12
2017-12-20T04:30:09.563Z,102391.29
2017-12-20T04:32:36.463Z,102393.53
2017-12-20T04:35:04.112Z,102391.74
2017-12-20T04:37:36.143Z,102393.95
2017-12-20T04:40:03.114Z,102386.92
2017-12-20T04:42:30.080Z,102388.70
2017-12-20T04:44:56.945Z,102383.03
2017-12-20T04:47:24.452Z,102382.14
2017-12-20T04:49:51.746Z,102388.26
2017-12-20T04:52:24.946Z,102383.00
2017-12-20T04:54:52.143Z,102386.06
2017-12-20T04:57:24.540Z,102381.25
2017-12-20T04:59:56.567Z,102382.55
2017-12-20T05:02:23.524Z,102393.02
2017-12-20T05:04:51.182Z,102395.65
2017-12-20T05:07:19.225Z,102390.44
2017-12-20T05:09:46.810Z,102386.48
2017-12-20T05:12:15.329Z,102389.52
2017-12-20T05:14:42.142Z,102389.52
2017-12-20T05:17:10.722Z,102390.81
2017-12-20T05:19:37.959Z,102397.37
2017-12-20T05:22:05.712Z,102404.38
2017-12-20T05:24:37.737Z,102401.75
2017-12-20T05:27:04.951Z,102401.33
2017-12-20T05:29:31.824Z,102400.43
2017-12-20T05:31:58.992Z,102400.88
2017-12-20T05:34:25.871Z,102399.11
2017-12-20T05:36:53.419Z,102403.48
2017-12-20T05:39:20.995Z,102403.04
2017-12-20T05:41:47.885Z,102396.91
2017-12-20T05:44:15.553Z,102394.75
2017-12-20T05:46:42.418Z,102399.09
2017-12-20T05:49:14.461Z,102403.04
2017-12-20T05:51:41.751Z,102406.56
2017-12-20T05:54:08.619Z,102403.05
2017-12-20T05:56:36.014Z,102401.75
2017-12-20T05:59:08.836Z,102392.98
2017-12-20T06:01:35.747Z,102396.92
2017-12-20T06:04:06.091Z,102391.24
2017-12-20T06:06:33.031Z,102384.23
2017-12-20T06:08:59.994Z,102382.93
2017-12-20T06:11:26.795Z,102381.63
2017-12-20T06:13:55.610Z,102379.85
2017-12-20T06:16:22.530Z,102381.17
2017-12-20T06:18:49.608Z,102386.42
2017-12-20T06:21:18.626Z,102383.34
2017-12-20T06:23:46.195Z,102383.34
2017-12-20T06:26:13.516Z,102379.84
2017-12-20T06:28:40.401Z,102390.33
2017-12-20T06:31:07.320Z,102389.91
2017-12-20T06:33:34.923Z,102393.42
2017-12-20T06:36:01.821Z,102389.48
2017-12-20T06:38:29.113Z,102393.41
2017-12-20T06:40:56.273Z,102392.53
2017-12-20T06:43:23.414Z,102396.05
2017-12-20T06:45:52.193Z,102394.28
2017-12-20T06:48:19.196Z,102396.91
2017-12-20T06:50:46.505Z,102399.50
2017-12-20T06:53:13.762Z,102406.09
2017-12-20T06:55:40.752Z,102407.39
2017-12-20T06:58:08.726Z,102411.32
2017-12-20T07:00:35.752Z,102409.58
2017-12-20T07:03:07.908Z,102416.55
2017-12-20T07:05:34.783Z,102416.55
2017-12-20T07:08:01.660Z,102407.38
2017-12-20T07:10:28.696Z,102411.29
2017-12-20T07:12:56.426Z,102414.80
2017-12-20T07:15:30.372Z,102419.17
2017-12-20T07:17:57.825Z,102416.55
2017-12-20T07:20:27.824Z,102414.37
2017-12-20T07:22:55.592Z,102415.20
2017-12-20T07:25:22.400Z,102427.92
2017-12-20T07:27:49.280Z,102430.09
2017-12-20T07:30:16.081Z,102425.73
2017-12-20T07:32:43.296Z,102436.20
2017-12-20T07:35:10.230Z,102438.83
2017-12-20T07:37:37.153Z,102434.02
2017-12-20T07:40:06.026Z,102438.42
2017-12-20T07:42:33.419Z,102441.04
2017-12-20T07:45:00.674Z,102441.88
2017-12-20T07:47:27.525Z,102443.63
2017-12-20T07:49:54.406Z,102444.52
2017-12-20T07:52:21.285Z,102445.80
2017-12-20T07:54:55.557Z,102441.42
2017-12-20T07:57:22.750Z,102442.30
2017-12-20T07:59:54.833Z,102446.23
2017-12-20T08:02:21.712Z,102449.31
2017-12-20T08:04:48.553Z,102455.41
2017-12-20T08:07:15.422Z,102440.98
2017-12-20T08:09:42.276Z,102442.73
2017-12-20T08:12:09.179Z,102443.59
2017-12-20T08:14:41.454Z,102446.23
2017-12-20T08:17:14.282Z,102447.96
2017-12-20T08:19:41.171Z,102447.96
2017-12-20T08:22:08.051Z,102453.21
2017-12-20T08:24:34.836Z,102456.69
2017-12-20T08:27:02.164Z,102462.80
2017-12-20T08:29:34.625Z,102461.48
2017-12-20T08:32:04.820Z,102463.23
2017-12-20T08:34:31.670Z,102450.98
2017-12-20T08:37:03.885Z,102455.34
2017-12-20T08:39:31.048Z,102460.61
2017-12-20T08:41:57.835Z,102467.16
2017-12-20T08:44:24.653Z,102470.64
2017-12-20T08:46:51.538Z,102472.83
2017-12-20T08:49:19.148Z,102481.55
2017-12-20T08:51:46.213Z,102492.06
2017-12-20T08:54:14.004Z,102489.00
2017-12-20T08:56:41.144Z,102492.06
2017-12-20T08:59:08.754Z,102496.41
2017-12-20T09:01:41.348Z,102495.11
2017-12-20T09:04:08.685Z,102498.16
2017-12-20T09:06:36.296Z,102502.10
2017-12-20T09:09:04.219Z,102502.50
2017-12-20T09:11:31.064Z,102505.59
2017-12-20T09:14:03.592Z,102506.87
2017-12-20T09:16:35.617Z,102513.44
2017-12-20T09:19:02.965Z,102509.94
2017-12-20T09:21:30.928Z,102512.54
2017-12-20T09:23:58.088Z,102514.73
2017-12-20T09:26:25.032Z,102519.55
2017-12-20T09:28:51.902Z,102522.63
2017-12-20T09:31:18.767Z,102526.09
2017-12-20T09:33:45.741Z,102532.65
2017-12-20T09:36:12.686Z,102530.49
2017-12-20T09:38:44.664Z,102530.44
2017-12-20T09:41:11.969Z,102538.30
2017-12-20T09:43:39.809Z,102535.22
2017-12-20T09:46:06.759Z,102535.23
2017-12-20T09:48:38.976Z,102538.29
2017-12-20T09:51:11.877Z,102537.84
2017-12-20T09:53:40.003Z,102547.03
2017-12-20T09:56:07.555Z,102545.69
2017-12-20T09:58:40.269Z,102542.18
2017-12-20T10:01:07.809Z,102529.91
2017-12-20T10:03:34.809Z,102534.75
2017-12-20T10:06:02.571Z,102531.19
2017-12-20T10:08:34.657Z,102536.44
2017-12-20T10:11:06.593Z,102534.28
2017-12-20T10:13:33.418Z,102529.89
2017-12-20T10:16:01.073Z,102532.48
2017-12-20T10:18:33.041Z,102536.45
2017-12-20T10:21:05.122Z,102536.42
2017-12-20T10:23:32.342Z,102527.26
2017-12-20T10:25:59.161Z,102532.48
2017-12-20T10:28:26.120Z,102524.14
2017-12-20T10:30:52.993Z,102524.14
2017-12-20T10:33:25.047Z,102518.91
2017-12-20T10:35:51.889Z,102514.49
2017-12-20T10:38:18.732Z,102513.61
2017-12-20T10:40:50.711Z,102513.17
2017-12-20T10:43:17.740Z,102512.31
2017-12-20T10:45:44.903Z,102513.09
2017-12-20T10:48:11.862Z,102513.13
2017-12-20T10:50:44.371Z,102510.91
2017-12-20T10:53:11.265Z,102516.60
2017-12-20T10:55:38.243Z,102513.10
2017-12-20T10:58:05.305Z,102518.34
2017-12-20T11:00:32.302Z,102522.26
2017-12-20T11:02:59.316Z,102518.73
2017-12-20T11:05:26.108Z,102516.54
2017-12-20T11:07:52.936Z,102516.08
2017-12-20T11:10:19.775Z,102518.33
2017-12-20T11:12:46.608Z,102523.55
2017-12-20T11:15:13.462Z,102516.06
2017-12-20T11:17:40.302Z,102512.55
2017-12-20T11:20:07.133Z,102521.34
2017-12-20T11:22:33.997Z,102515.58
2017-12-20T11:25:01.614Z,102515.14
2017-12-20T11:27:29.171Z,102525.18
2017-12-20T11:29:55.964Z,102517.25
2017-12-20T11:32:22.874Z,102518.56
2017-12-20T11:34:50.479Z,102518.56
2017-12-20T11:37:17.302Z,102517.25
2017-12-20T11:39:44.082Z,102516.77
2017-12-20T11:42:10.903Z,102510.14
2017-12-20T11:44:37.679Z,102512.44
2017-12-20T11:47:04.489Z,102508.03
2017-12-20T11:49:31.335Z,102495.27
2017-12-20T11:51:58.131Z,102495.28
2017-12-20T11:54:24.917Z,102501.48
2017-12-20T11:56:51.708Z,102500.11
2017-12-20T11:59:18.601Z,102497.87
2017-12-20T12:01:45.422Z,102488.66
2017-12-20T12:04:12.961Z,102488.16
2017-12-20T12:06:39.826Z,102480.75
2017-12-20T12:09:06.625Z,102485.17
2017-12-20T12:11:34.167Z,102475.47
2017-12-20T12:14:00.960Z,102482.02
2017-12-20T12:16:27.869Z,102477.64
2017-12-20T12:18:54.658Z,102475.90
2017-12-20T12:21:21.505Z,102478.90
2017-12-20T12:23:48.320Z,102475.84
2017-12-20T12:26:15.125Z,102478.90
2017-12-20T12:28:41.939Z,102476.71
2017-12-20T12:31:08.776Z,102481.86
2017-12-20T12:33:35.582Z,102480.61
2017-12-20T12:36:02.454Z,102477.55
2017-12-20T12:38:29.268Z,102468.73
2017-12-20T12:40:56.834Z,102470.52
2017-12-20T12:43:23.630Z,102471.41
2017-12-20T12:45:50.482Z,102465.25
2017-12-20T12:48:17.340Z,102470.13
2017-12-20T12:50:44.137Z,102471.34
2017-12-20T12:53:11.021Z,102462.23
2017-12-20T12:55:38.295Z,102467.42
2017-12-20T12:58:05.135Z,102473.58
2017-12-20T13:00:31.986Z,102466.98
2017-12-20T13:02:58.810Z,102459.58
2017-12-20T13:05:25.642Z,102459.58
2017-12-20T13:07:52.491Z,102456.87
2017-12-20T13:10:19.293Z,102459.12
2017-12-20T13:12:46.924Z,102460.03
2017-12-20T13:15:13.698Z,102456.13
2017-12-20T13:17:40.532Z,102463.56
2017-12-20T13:20:07.322Z,102456.95
2017-12-20T13:22:34.152Z,102453.45
2017-12-20T13:25:00.944Z,102463.06
2017-12-20T13:27:27.723Z,102456.97
2017-12-20T13:29:55.227Z,102465.29
2017-12-20T13:32:22.116Z,102457.41
2017-12-20T13:34:48.944Z,102460.05
2017-12-20T13:37:15.738Z,102460.93
2017-12-20T13:39:42.560Z,102466.16
2017-12-20T13:42:09.340Z,102465.23
2017-12-20T13:44:36.125Z,102467.47
2017-12-20T13:47:02.949Z,102470.93
2017-12-20T13:49:29.810Z,102468.76
2017-12-20T13:51:56.646Z,102476.66
2017-12-20T13:54:24.234Z,102488.04
2017-12-20T13:56:51.811Z,102485.05
2017-12-20T13:59:20.306Z,102489.41
2017-12-20T14:01:47.878Z,102487.67
2017-12-20T14:04:14.692Z,102496.41
2017-12-20T14:06:41.544Z,102497.27
2017-12-20T14:09:08.398Z,102492.91
2017-12-20T14:11:35.222Z,102496.42
2017-12-20T14:14:02.826Z,102495.97
2017-12-20T14:16:29.699Z,102491.61
2017-12-20T14:18:56.514Z,102493.78
2017-12-20T14:21:23.307Z,102498.12
2017-12-20T14:23:50.185Z,102492.53
2017-12-20T14:26:16.965Z,102483.28
2017-12-20T14:28:43.745Z,102470.55
2017-12-20T14:31:10.545Z,102478.38
2017-12-20T14:33:37.409Z,102477.58
2017-12-20T14:36:04.213Z,102474.09
2017-12-20T14:38:30.972Z,102477.92
2017-12-20T14:40:57.829Z,102470.69
2017-12-20T14:43:24.643Z,102475.11
2017-12-20T14:45:51.464Z,102467.16
2017-12-20T14:48:18.301Z,102465.94
2017-12-20T14:50:45.091Z,102464.58
2017-12-20T14:53:11.941Z,102466.35
2017-12-20T14:55:38.857Z,102477.22
2017-12-20T14:58:05.666Z,102482.15
2017-12-20T15:00:32.550Z,102483.52
2017-12-20T15:02:59.376Z,102489.26
2017-12-20T15:05:26.219Z,102493.25
2017-12-20T15:07:53.070Z,102490.16
2017-12-20T15:10:19.886Z,102490.59
2017-12-20T15:12:47.234Z,102504.20
2017-12-20T15:15:14.354Z,102498.08
2017-12-20T15:17:41.264Z,102491.97
2017-12-20T15:20:08.684Z,102500.71
2017-12-20T15:22:37.171Z,102502.48
2017-12-20T15:25:04.014Z,102499.91
2017-12-20T15:27:30.852Z,102499.02
2017-12-20T15:29:57.618Z,102502.92
2017-12-20T15:32:24.438Z,102495.97
2017-12-20T15:34:51.634Z,102503.41
2017-12-20T15:37:18.475Z,102491.17
2017-12-20T15:39:45.259Z,102484.16
2017-12-20T15:42:12.200Z,102490.69
2017-12-20T15:44:39.750Z,102500.38
2017-12-20T15:47:07.274Z,102490.75
2017-12-20T15:49:34.074Z,102496.88
2017-12-20T15:52:00.846Z,102508.26
2017-12-20T15:54:28.436Z,102514.35
2017-12-20T15:56:55.975Z,102505.23
2017-12-20T15:59:23.163Z,102498.21
2017-12-20T16:01:50.748Z,102499.50
2017-12-20T16:04:18.294Z,102499.06
2017-12-20T16:06:45.069Z,102499.50
2017-12-20T16:09:11.921Z,102509.16
2017-12-20T16:11:38.718Z,102520.10
2017-12-20T16:14:06.290Z,102529.73
2017-12-20T16:16:33.137Z,102536.75
2017-12-20T16:18:59.952Z,102549.44
2017-12-20T16:21:26.788Z,102553.00
2017-12-20T16:23:54.344Z,102553.91
2017-12-20T16:26:21.161Z,102546.87
2017-12-20T16:28:48.000Z,102545.49
2017-12-20T16:31:14.844Z,102550.34
2017-12-20T16:33:42.477Z,102551.69
2017-12-20T16:36:09.282Z,102555.15
2017-12-20T16:38:36.053Z,102556.05
2017-12-20T16:41:02.964Z,102556.06
2017-12-20T16:43:29.802Z,102554.75
2017-12-20T16:45:56.613Z,102559.11
2017-12-20T16:48:24.170Z,102558.27
2017-12-20T16:50:50.949Z,102556.07
2017-12-20T16:53:35.894Z,102550.82
2017-12-20T16:56:03.634Z,102549.05
2017-12-20T16:58:30.479Z,102551.70
2017-12-20T17:00:57.321Z,102547.27
2017-12-20T17:03:24.191Z,102538.54
2017-12-20T17:05:50.985Z,102544.22
2017-12-20T17:08:17.791Z,102547.25
2017-12-20T17:10:44.609Z,102551.20
2017-12-20T17:13:11.406Z,102549.02
2017-12-20T17:15:38.358Z,102546.41
2017-12-20T17:18:05.188Z,102535.45
2017-12-20T17:20:32.010Z,102531.52
2017-12-20T17:22:58.845Z,102543.34
2017-12-20T17:25:25.628Z,102543.80
2017-12-20T17:27:52.441Z,102545.58
2017-12-20T17:30:19.288Z,102544.67
2017-12-20T17:32:46.126Z,102537.69
2017-12-20T17:35:13.659Z,102531.97
2017-12-20T17:37:40.480Z,102531.09
2017-12-20T17:40:08.138Z,102525.39
2017-12-20T17:42:34.950Z,102530.21
2017-12-20T17:45:01.772Z,102527.63
2017-12-20T17:47:29.355Z,102530.66
2017-12-20T17:49:57.802Z,102525.37
2017-12-20T17:52:24.610Z,102527.12
2017-12-20T17:54:52.164Z,102531.92
2017-12-20T17:57:19.007Z,102535.43
2017-12-20T17:59:45.872Z,102539.88
2017-12-20T18:02:12.840Z,102548.15
2017-12-20T18:04:39.840Z,102556.90
2017-12-20T18:07:07.379Z,102554.30
2017-12-20T18:09:34.225Z,102549.89
2017-12-20T18:12:01.041Z,102555.64
2017-12-20T18:14:28.594Z,102562.21
2017-12-20T18:16:55.923Z,102561.75
2017-12-20T18:19:22.756Z,102565.67
2017-12-20T18:21:50.267Z,102576.25
2017-12-20T18:24:17.168Z,102581.03
2017-12-20T18:26:44.040Z,102585.83
2017-12-20T18:29:11.554Z,102582.77
2017-12-20T18:31:38.396Z,102588.05
2017-12-20T18:34:06.072Z,102598.11
2017-12-20T18:36:33.731Z,102594.20
2017-12-20T18:39:00.573Z,102603.81
2017-12-20T18:41:27.427Z,102609.05
2017-12-20T18:43:54.285Z,102606.88
2017-12-20T18:46:22.850Z,102609.06
2017-12-20T18:48:50.064Z,102614.30
2017-12-20T18:51:17.099Z,102620.86
2017-12-20T18:53:47.401Z,102620.91
2017-12-20T18:58:55.087Z,102608.20
2017-12-20T19:04:07.071Z,102597.67
2017-12-20T19:06:35.848Z,102591.50
2017-12-20T21:14:01.275Z,102580.09
2017-12-20T21:16:29.030Z,102566.95
2017-12-20T21:18:56.037Z,102557.27
2017-12-20T21:21:24.101Z,102559.93
2017-12-20T21:23:53.112Z,102570.41
2017-12-20T21:26:20.153Z,102576.13
2017-12-20T21:28:48.152Z,102568.23
2017-12-20T21:31:16.109Z,102563.84
2017-12-20T21:33:43.098Z,102558.55
2017-12-20T21:36:29.295Z,102553.30
2017-12-20T21:38:59.245Z,102552.41
2017-12-20T21:41:26.225Z,102551.94
2017-12-20T21:43:53.472Z,102549.36
2017-12-20T21:46:20.461Z,102558.95
2017-12-20T21:48:47.475Z,102560.28
2017-12-20T21:51:15.253Z,102562.01
2017-12-20T21:53:42.243Z,102555.91
2017-12-20T21:56:12.483Z,102544.52
2017-12-20T21:58:39.396Z,102551.06
2017-12-20T22:01:08.138Z,102562.43
2017-12-20T22:03:35.124Z,102562.48
2017-12-20T22:06:02.070Z,102562.40
2017-12-20T22:08:28.951Z,102552.42
2017-12-20T22:10:55.882Z,102546.70
2017-12-20T22:13:22.912Z,102556.72
2017-12-20T22:15:49.790Z,102560.59
2017-12-20T22:18:17.498Z,102567.68
2017-12-20T22:20:44.367Z,102567.70
2017-12-20T22:23:11.263Z,102562.84
2017-12-20T22:25:39.420Z,102567.69
2017-12-20T22:28:06.339Z,102585.16
2017-12-20T22:30:33.235Z,102577.70
2017-12-20T22:33:00.127Z,102574.26
2017-12-20T22:35:27.007Z,102570.77
2017-12-20T22:37:53.892Z,102572.08
2017-12-20T22:40:21.570Z,102573.81
2017-12-20T22:42:48.467Z,102576.82
2017-12-20T22:45:15.309Z,102577.70
2017-12-20T22:47:42.878Z,102565.86
2017-12-20T22:50:10.465Z,102568.51
2017-12-20T22:52:37.466Z,102561.03
2017-12-20T22:55:04.857Z,102551.86
2017-12-20T22:57:31.725Z,102556.20
2017-12-20T22:59:58.578Z,102556.19
2017-12-20T23:02:25.457Z,102557.06
2017-12-20T23:04:52.310Z,102553.90
2017-12-20T23:07:19.193Z,102546.95
2017-12-20T23:09:46.081Z,102546.98
2017-12-20T23:12:12.911Z,102543.89
2017-12-20T23:14:39.756Z,102535.97
2017-12-20T23:17:06.626Z,102535.58
2017-12-20T23:19:33.457Z,102546.48
2017-12-20T23:22:00.296Z,102553.98
2017-12-20T23:24:27.215Z,102560.97
2017-12-20T23:26:54.112Z,102558.73
2017-12-20T23:29:20.991Z,102558.32
2017-12-20T23:31:49.293Z,102567.55
2017-12-20T23:34:18.584Z,102568.89
2017-12-20T23:36:46.346Z,102565.35
2017-12-20T23:39:13.303Z,102556.57
2017-12-20T23:41:40.396Z,102550.87
2017-12-20T23:44:10.362Z,102557.02
2017-12-20T23:46:37.561Z,102547.38
2017-12-20T23:49:07.322Z,102554.75
2017-12-20T23:51:34.444Z,102565.31
2017-12-20T23:54:02.181Z,102561.81
2017-12-20T23:56:30.035Z,102556.94
2017-12-20T23:58:57.954Z,102561.75
